createdAt,value
2018-11-01T13:08:11.692Z,26.97
2018-11-01T13:10:41.045Z,19.57
2018-11-01T13:13:10.233Z,15.40
2018-11-01T13:15:39.805Z,25.87
2018-11-01T13:18:09.215Z,22.30
2018-11-01T13:20:38.580Z,17.20
2018-11-01T13:23:08.009Z,16.27
2018-11-01T13:25:37.304Z,15.77
2018-11-01T13:28:08.118Z,23.13
2018-11-01T13:30:37.649Z,20.57
2018-11-01T13:33:07.053Z,20.00
2018-11-01T13:35:36.401Z,15.67
2018-11-01T13:38:05.874Z,19.47
2018-11-01T13:40:35.563Z,18.80
2018-11-01T13:43:04.871Z,21.73
2018-11-01T13:45:34.304Z,12.97
2018-11-01T13:48:03.681Z,20.07
2018-11-01T13:50:32.880Z,20.73
2018-11-01T13:53:02.660Z,24.73
2018-11-01T13:55:32.089Z,18.07
2018-11-01T13:58:01.580Z,22.00
2018-11-01T14:00:30.896Z,19.33
2018-11-01T14:03:00.567Z,18.50
2018-11-01T14:05:29.946Z,15.87
2018-11-01T14:07:59.447Z,17.70
2018-11-01T14:10:28.717Z,16.43
2018-11-01T14:12:58.117Z,22.27
2018-11-01T14:15:27.511Z,26.53
2018-11-01T14:17:57.042Z,19.40
2018-11-01T14:20:26.430Z,20.93
2018-11-01T14:22:56.166Z,19.40
2018-11-01T14:25:25.672Z,21.87
2018-11-01T14:27:54.948Z,18.30
2018-11-01T14:30:24.372Z,17.80
2018-11-01T14:32:53.983Z,20.20
2018-11-01T14:35:23.341Z,19.30
2018-11-01T14:37:52.691Z,17.83
2018-11-01T14:40:22.167Z,20.20
2018-11-01T14:42:51.571Z,30.07
2018-11-01T14:45:20.827Z,17.00
2018-11-01T14:47:50.156Z,21.62
2018-11-01T14:50:19.450Z,18.60
2018-11-01T14:52:49.254Z,19.07
2018-11-01T14:55:19.114Z,24.90
2018-11-01T14:57:48.686Z,16.90
2018-11-01T15:00:16.790Z,29.10
2018-11-01T15:02:46.216Z,23.60
2018-11-01T15:05:15.921Z,22.27
2018-11-01T15:07:45.221Z,27.10
2018-11-01T15:10:15.643Z,23.93
2018-11-01T15:12:45.783Z,21.03
2018-11-01T15:15:15.156Z,22.57
2018-11-01T15:17:44.310Z,24.05
2018-11-01T15:20:13.449Z,23.20
2018-11-01T15:22:42.726Z,27.63
2018-11-01T15:25:12.655Z,22.53
2018-11-01T15:27:41.985Z,24.37
2018-11-01T15:30:15.199Z,26.10
2018-11-01T15:32:44.965Z,28.62
2018-11-01T15:35:14.274Z,24.67
2018-11-01T15:37:43.687Z,21.77
2018-11-01T15:40:13.618Z,27.87
2018-11-01T15:42:43.493Z,28.47
2018-11-01T15:45:13.645Z,22.43
2018-11-01T15:47:43.307Z,27.83
2018-11-01T15:50:13.760Z,19.83
2018-11-01T15:52:43.281Z,24.87
2018-11-01T15:55:12.660Z,17.80
2018-11-01T15:57:42.229Z,25.37
2018-11-01T16:00:13.182Z,30.83
2018-11-01T16:02:43.768Z,29.95
2018-11-01T16:05:14.050Z,28.90
2018-11-01T16:07:43.569Z,22.73
2018-11-01T16:10:13.330Z,23.77
2018-11-01T16:12:42.684Z,26.67
2018-11-01T16:15:16.272Z,28.13
2018-11-01T16:17:45.797Z,23.98
2018-11-01T16:20:15.021Z,22.70
2018-11-01T16:22:44.378Z,28.37
2018-11-01T16:25:13.896Z,29.20
2018-11-01T16:27:43.327Z,19.43
2018-11-01T16:30:12.636Z,28.47
2018-11-01T16:32:42.004Z,22.93
2018-11-01T16:35:11.202Z,28.80
2018-11-01T16:37:40.710Z,31.17
2018-11-01T16:40:11.787Z,19.77
2018-11-01T16:42:41.348Z,33.17
2018-11-01T16:45:13.200Z,26.93
2018-11-01T16:47:42.806Z,24.90
2018-11-01T16:50:12.525Z,25.77
2018-11-01T16:52:42.683Z,23.77
2018-11-01T16:55:12.473Z,31.70
2018-11-01T16:57:42.018Z,23.40
2018-11-01T17:00:12.621Z,29.87
2018-11-01T17:02:42.224Z,24.27
2018-11-01T17:05:12.445Z,21.60
2018-11-01T17:07:42.028Z,20.10
2018-11-01T17:10:12.656Z,26.13
2018-11-01T17:12:42.185Z,35.73
2018-11-01T17:15:13.268Z,25.37
2018-11-01T17:17:42.554Z,29.83
2018-11-01T17:20:12.032Z,29.90
2018-11-01T17:22:41.856Z,27.23
2018-11-01T17:25:11.726Z,32.60
2018-11-01T17:27:41.164Z,21.13
2018-11-01T17:30:11.015Z,25.43
2018-11-01T17:32:51.237Z,27.47
2018-11-01T17:35:20.749Z,29.17
2018-11-01T17:37:50.048Z,25.87
2018-11-01T17:40:19.543Z,31.43
2018-11-01T17:42:48.718Z,24.63
2018-11-01T17:45:17.926Z,30.57
2018-11-01T17:47:47.165Z,26.97
2018-11-01T17:50:17.378Z,28.40
2018-11-01T17:52:46.983Z,34.07
2018-11-01T17:55:16.693Z,21.87
2018-11-01T17:57:46.087Z,25.53
2018-11-01T18:00:16.108Z,29.50
2018-11-01T18:02:45.523Z,28.10
2018-11-01T18:05:14.633Z,22.63
2018-11-01T18:07:44.028Z,27.13
2018-11-01T18:10:14.027Z,26.20
2018-11-01T18:12:43.867Z,30.40
2018-11-01T18:15:13.190Z,30.60
2018-11-01T18:17:42.746Z,20.47
2018-11-01T18:20:13.205Z,31.27
2018-11-01T18:22:42.680Z,29.27
2018-11-01T18:25:13.317Z,36.90
2018-11-01T18:27:43.202Z,25.70
2018-11-01T18:30:15.486Z,27.43
2018-11-01T18:32:45.570Z,37.53
2018-11-01T18:35:14.942Z,22.63
2018-11-01T18:37:44.262Z,34.60
2018-11-01T18:40:15.428Z,26.97
2018-11-01T18:42:45.021Z,30.40
2018-11-01T18:45:15.270Z,26.00
2018-11-01T18:47:45.114Z,28.73
2018-11-01T18:50:15.789Z,23.27
2018-11-01T18:52:45.425Z,28.57
2018-11-01T18:55:21.735Z,24.43
2018-11-01T18:57:51.124Z,34.80
2018-11-01T19:00:20.556Z,29.23
2018-11-01T19:02:50.132Z,29.17
2018-11-01T19:05:19.788Z,29.17
2018-11-01T19:07:49.084Z,24.80
2018-11-01T19:10:18.480Z,26.93
2018-11-01T19:12:47.940Z,31.33
2018-11-01T19:15:17.425Z,29.37
2018-11-01T19:17:46.768Z,28.57
2018-11-01T19:20:16.347Z,24.03
2018-11-01T19:22:45.669Z,25.40
2018-11-01T19:25:15.069Z,29.12
2018-11-01T19:27:44.235Z,31.17
2018-11-01T19:30:13.972Z,29.20
2018-11-01T19:32:43.755Z,26.93
2018-11-01T19:35:13.805Z,29.87
2018-11-01T19:37:43.104Z,19.70
2018-11-01T19:40:14.599Z,22.63
2018-11-01T19:42:44.370Z,24.63
2018-11-01T19:45:13.810Z,23.23
2018-11-01T19:47:43.671Z,17.93
2018-11-01T19:50:14.233Z,23.67
2018-11-01T19:52:43.485Z,21.73
2018-11-01T19:55:13.339Z,25.60
2018-11-01T19:57:43.262Z,24.30
2018-11-01T20:00:17.133Z,20.27
2018-11-01T20:02:47.482Z,18.33
2018-11-01T20:05:16.993Z,19.93
2018-11-01T20:07:46.430Z,22.73
2018-11-01T20:10:16.403Z,22.63
2018-11-01T20:12:45.907Z,23.43
2018-11-01T20:15:15.114Z,24.03
2018-11-01T20:17:44.521Z,27.03
2018-11-01T20:20:14.548Z,26.37
2018-11-01T20:22:45.089Z,23.30
2018-11-01T20:25:14.534Z,27.60
2018-11-01T20:27:44.089Z,19.40
2018-11-01T20:30:14.617Z,24.20
2018-11-01T20:32:44.513Z,21.03
2018-11-01T20:35:14.712Z,23.20
2018-11-01T20:37:44.401Z,21.30
2018-11-01T20:40:13.840Z,21.40
2018-11-01T20:42:43.978Z,24.63
2018-11-01T20:45:14.018Z,17.13
2018-11-01T20:47:43.453Z,19.17
2018-11-01T20:50:13.670Z,21.20
2018-11-01T20:52:42.981Z,15.67
2018-11-01T20:55:12.242Z,21.63
2018-11-01T20:57:41.776Z,14.20
2018-11-01T21:00:13.520Z,18.50
2018-11-01T21:02:42.996Z,15.00
2018-11-01T21:05:12.667Z,17.17
2018-11-01T21:07:41.725Z,11.37
2018-11-01T21:10:11.519Z,19.83
2018-11-01T21:12:41.323Z,15.17
2018-11-01T21:15:12.731Z,17.60
2018-11-01T21:17:42.377Z,14.73
2018-11-01T21:20:11.915Z,8.90
2018-11-01T21:22:41.430Z,18.13
2018-11-01T21:25:11.825Z,13.73
2018-11-01T21:27:42.144Z,20.23
2018-11-01T21:30:11.766Z,13.10
2018-11-01T21:32:41.156Z,14.03
2018-11-01T21:35:10.789Z,18.50
2018-11-01T21:37:39.958Z,11.95
2018-11-01T21:40:10.512Z,11.80
2018-11-01T21:42:40.269Z,16.00
2018-11-01T21:45:11.809Z,11.73
2018-11-01T21:47:41.420Z,22.43
2018-11-01T21:50:11.296Z,16.10
2018-11-01T21:52:40.912Z,14.03
2018-11-01T21:55:10.391Z,10.80
2018-11-01T21:57:39.809Z,15.80
2018-11-01T22:00:10.458Z,13.00
2018-11-01T22:02:40.557Z,12.53
2018-11-01T22:05:10.241Z,11.23
2018-11-01T22:07:40.217Z,11.80
2018-11-01T22:10:10.111Z,12.30
2018-11-01T22:12:39.783Z,15.33
2018-11-01T22:15:10.763Z,11.43
2018-11-01T22:17:40.664Z,11.47
2018-11-01T22:20:10.669Z,8.57
2018-11-01T22:22:40.615Z,7.57
2018-11-01T22:25:09.943Z,12.33
2018-11-01T22:27:39.492Z,10.60
2018-11-01T22:30:10.036Z,5.77
2018-11-01T22:32:39.626Z,8.67
2018-11-01T22:35:09.858Z,10.07
2018-11-01T22:37:40.071Z,7.27
2018-11-01T22:40:09.372Z,7.63
2018-11-01T22:42:38.956Z,10.98
2018-11-01T22:45:09.838Z,8.03
2018-11-01T22:47:39.447Z,7.60
2018-11-01T22:50:09.856Z,5.63
2018-11-01T22:52:39.742Z,10.93
2018-11-01T22:55:10.330Z,7.60
2018-11-01T22:57:40.004Z,4.70
2018-11-01T23:00:16.310Z,5.30
2018-11-01T23:02:45.992Z,6.37
2018-11-01T23:05:15.480Z,5.57
2018-11-01T23:07:44.958Z,5.90
2018-11-01T23:10:15.528Z,7.83
2018-11-01T23:12:45.041Z,6.30
2018-11-01T23:15:14.848Z,10.77
2018-11-01T23:17:44.353Z,8.28
2018-11-01T23:20:14.348Z,10.53
2018-11-01T23:22:43.616Z,11.67
2018-11-01T23:25:12.868Z,7.27
2018-11-01T23:27:42.633Z,14.47
2018-11-01T23:30:11.958Z,10.77
2018-11-01T23:32:41.294Z,8.95
2018-11-01T23:35:10.568Z,11.10
2018-11-01T23:37:57.269Z,8.63
2018-11-01T23:40:44.462Z,7.43
2018-11-01T23:43:31.304Z,6.03
2018-11-01T23:46:18.404Z,6.87
2018-11-01T23:48:50.339Z,4.13
2018-11-01T23:51:20.016Z,3.83
2018-11-01T23:53:50.542Z,5.03
2018-11-01T23:56:20.256Z,4.77
2018-11-01T23:58:49.740Z,6.00
